sensor_id;sensor_type;location;lat;lon;timestamp;temperature;humidity
5200;DHT22;2619;47.868;11.892;2023-05-16T00:00:15;10.00;99.90
5200;DHT22;2619;47.868;11.892;2023-05-16T00:02:40;10.00;99.90
5200;DHT22;2619;47.868;11.892;2023-05-16T00:05:06;10.00;99.90
5200;DHT22;2619;47.868;11.892;2023-05-16T00:07:33;10.00;99.90
5200;DHT22;2619;47.868;11.892;2023-05-16T00:09:58;9.90;99.90
5200;DHT22;2619;47.868;11.892;2023-05-16T00:12:24;9.90;99.90
5200;DHT22;2619;47.868;11.892;2023-05-16T00:14:50;9.90;99.90
5200;DHT22;2619;47.868;11.892;2023-05-16T00:17:16;9.90;99.90
5200;DHT22;2619;47.868;11.892;2023-05-16T00:19:45;9.90;99.90
5200;DHT22;2619;47.868;11.892;2023-05-16T00:22:13;9.90;99.90
5200;DHT22;2619;47.868;11.892;2023-05-16T00:24:40;9.90;99.90
5200;DHT22;2619;47.868;11.892;2023-05-16T00:27:06;9.80;99.90
5200;DHT22;2619;47.868;11.892;2023-05-16T00:29:33;9.80;99.90
5200;DHT22;2619;47.868;11.892;2023-05-16T00:31:59;9.80;99.90
5200;DHT22;2619;47.868;11.892;2023-05-16T00:34:24;9.90;99.90
5200;DHT22;2619;47.868;11.892;2023-05-16T00:36:50;9.90;99.90
5200;DHT22;2619;47.868;11.892;2023-05-16T00:39:15;9.90;99.90
5200;DHT22;2619;47.868;11.892;2023-05-16T00:41:41;9.90;99.90
5200;DHT22;2619;47.868;11.892;2023-05-16T00:44:07;9.90;99.90
5200;DHT22;2619;47.868;11.892;2023-05-16T00:46:33;9.90;99.90
5200;DHT22;2619;47.868;11.892;2023-05-16T00:48:59;9.90;99.90
5200;DHT22;2619;47.868;11.892;2023-05-16T00:51:25;9.90;99.90
5200;DHT22;2619;47.868;11.892;2023-05-16T00:53:51;9.90;99.90
5200;DHT22;2619;47.868;11.892;2023-05-16T00:56:17;9.90;99.90
5200;DHT22;2619;47.868;11.892;2023-05-16T00:58:43;9.90;99.90
5200;DHT22;2619;47.868;11.892;2023-05-16T01:01:08;9.90;99.90
5200;DHT22;2619;47.868;11.892;2023-05-16T01:03:34;9.90;99.90
5200;DHT22;2619;47.868;11.892;2023-05-16T01:06:00;9.90;99.90
5200;DHT22;2619;47.868;11.892;2023-05-16T01:08:25;9.90;99.90
5200;DHT22;2619;47.868;11.892;2023-05-16T01:16:20;9.90;99.90
5200;DHT22;2619;47.868;11.892;2023-05-16T01:18:51;9.80;99.90
5200;DHT22;2619;47.868;11.892;2023-05-16T01:21:43;9.90;99.90
5200;DHT22;2619;47.868;11.892;2023-05-16T01:24:18;9.80;99.90
5200;DHT22;2619;47.868;11.892;2023-05-16T01:26:47;9.90;99.90
5200;DHT22;2619;47.868;11.892;2023-05-16T01:29:14;9.90;99.90
5200;DHT22;2619;47.868;11.892;2023-05-16T01:31:40;9.90;99.90
5200;DHT22;2619;47.868;11.892;2023-05-16T01:34:05;9.90;99.90
5200;DHT22;2619;47.868;11.892;2023-05-16T01:37:11;9.90;99.90
5200;DHT22;2619;47.868;11.892;2023-05-16T01:39:40;10.00;99.90
5200;DHT22;2619;47.868;11.892;2023-05-16T01:42:13;10.00;99.90
5200;DHT22;2619;47.868;11.892;2023-05-16T01:44:52;9.90;99.90
5200;DHT22;2619;47.868;11.892;2023-05-16T01:47:19;9.90;99.90
5200;DHT22;2619;47.868;11.892;2023-05-16T01:50:15;9.90;99.90
5200;DHT22;2619;47.868;11.892;2023-05-16T01:52:49;9.90;99.90
5200;DHT22;2619;47.868;11.892;2023-05-16T01:55:22;9.90;99.90
5200;DHT22;2619;47.868;11.892;2023-05-16T01:57:48;10.00;99.90
5200;DHT22;2619;47.868;11.892;2023-05-16T02:00:14;9.90;99.90
5200;DHT22;2619;47.868;11.892;2023-05-16T02:02:40;9.90;99.90
5200;DHT22;2619;47.868;11.892;2023-05-16T02:05:06;9.90;99.90
5200;DHT22;2619;47.868;11.892;2023-05-16T02:07:32;9.90;99.90
5200;DHT22;2619;47.868;11.892;2023-05-16T02:09:58;9.90;99.90
5200;DHT22;2619;47.868;11.892;2023-05-16T02:12:24;9.80;99.90
5200;DHT22;2619;47.868;11.892;2023-05-16T02:14:49;9.80;99.90
5200;DHT22;2619;47.868;11.892;2023-05-16T02:17:15;9.80;99.90
5200;DHT22;2619;47.868;11.892;2023-05-16T02:19:40;9.80;99.90
5200;DHT22;2619;47.868;11.892;2023-05-16T02:22:06;9.80;99.90
5200;DHT22;2619;47.868;11.892;2023-05-16T02:24:32;9.80;99.90
5200;DHT22;2619;47.868;11.892;2023-05-16T02:26:57;9.80;99.90
5200;DHT22;2619;47.868;11.892;2023-05-16T02:29:23;9.80;99.90
5200;DHT22;2619;47.868;11.892;2023-05-16T02:31:48;9.90;99.90
5200;DHT22;2619;47.868;11.892;2023-05-16T02:34:14;9.90;99.90
5200;DHT22;2619;47.868;11.892;2023-05-16T02:36:40;9.90;99.90
5200;DHT22;2619;47.868;11.892;2023-05-16T02:39:06;9.90;99.90
5200;DHT22;2619;47.868;11.892;2023-05-16T02:41:34;9.90;99.90
5200;DHT22;2619;47.868;11.892;2023-05-16T02:44:00;9.80;99.90
5200;DHT22;2619;47.868;11.892;2023-05-16T02:46:33;9.80;99.90
5200;DHT22;2619;47.868;11.892;2023-05-16T02:48:59;9.80;99.90
5200;DHT22;2619;47.868;11.892;2023-05-16T02:51:26;9.70;99.90
5200;DHT22;2619;47.868;11.892;2023-05-16T02:53:52;9.70;99.90
5200;DHT22;2619;47.868;11.892;2023-05-16T02:56:18;9.70;99.90
5200;DHT22;2619;47.868;11.892;2023-05-16T02:58:46;9.70;99.90
5200;DHT22;2619;47.868;11.892;2023-05-16T03:01:12;9.70;99.90
5200;DHT22;2619;47.868;11.892;2023-05-16T03:03:38;9.80;99.90
5200;DHT22;2619;47.868;11.892;2023-05-16T03:06:04;9.80;99.90
5200;DHT22;2619;47.868;11.892;2023-05-16T03:08:30;9.80;99.90
5200;DHT22;2619;47.868;11.892;2023-05-16T03:10:56;9.70;99.90
5200;DHT22;2619;47.868;11.892;2023-05-16T03:13:22;9.70;99.90
5200;DHT22;2619;47.868;11.892;2023-05-16T03:15:48;9.70;99.90
5200;DHT22;2619;47.868;11.892;2023-05-16T03:18:14;9.70;99.90
5200;DHT22;2619;47.868;11.892;2023-05-16T03:20:39;9.70;99.90
5200;DHT22;2619;47.868;11.892;2023-05-16T03:23:05;9.80;99.90
5200;DHT22;2619;47.868;11.892;2023-05-16T03:25:33;9.80;99.90
5200;DHT22;2619;47.868;11.892;2023-05-16T03:27:59;9.80;99.90
5200;DHT22;2619;47.868;11.892;2023-05-16T03:30:24;9.90;99.90
5200;DHT22;2619;47.868;11.892;2023-05-16T03:32:51;9.90;99.90
5200;DHT22;2619;47.868;11.892;2023-05-16T03:35:17;9.90;99.90
5200;DHT22;2619;47.868;11.892;2023-05-16T03:37:42;9.90;99.90
5200;DHT22;2619;47.868;11.892;2023-05-16T03:40:08;9.80;99.90
5200;DHT22;2619;47.868;11.892;2023-05-16T03:42:35;9.80;99.90
5200;DHT22;2619;47.868;11.892;2023-05-16T03:45:01;9.80;99.90
5200;DHT22;2619;47.868;11.892;2023-05-16T03:47:27;9.80;99.90
5200;DHT22;2619;47.868;11.892;2023-05-16T03:49:55;9.80;99.90
5200;DHT22;2619;47.868;11.892;2023-05-16T03:52:21;9.80;99.90
5200;DHT22;2619;47.868;11.892;2023-05-16T03:54:46;9.90;99.90
5200;DHT22;2619;47.868;11.892;2023-05-16T03:57:12;9.90;99.90
5200;DHT22;2619;47.868;11.892;2023-05-16T03:59:38;9.90;99.90
5200;DHT22;2619;47.868;11.892;2023-05-16T04:02:04;9.90;99.90
5200;DHT22;2619;47.868;11.892;2023-05-16T04:04:30;9.80;99.90
5200;DHT22;2619;47.868;11.892;2023-05-16T04:06:55;9.80;99.90
5200;DHT22;2619;47.868;11.892;2023-05-16T04:09:21;9.80;99.90
5200;DHT22;2619;47.868;11.892;2023-05-16T04:11:46;9.80;99.90
5200;DHT22;2619;47.868;11.892;2023-05-16T04:14:12;9.80;99.90
5200;DHT22;2619;47.868;11.892;2023-05-16T04:16:40;9.80;99.90
5200;DHT22;2619;47.868;11.892;2023-05-16T04:19:06;9.80;99.90
5200;DHT22;2619;47.868;11.892;2023-05-16T04:21:31;9.90;99.90
5200;DHT22;2619;47.868;11.892;2023-05-16T04:23:57;9.90;99.90
5200;DHT22;2619;47.868;11.892;2023-05-16T04:26:23;10.00;99.90
5200;DHT22;2619;47.868;11.892;2023-05-16T04:28:49;10.00;99.90
5200;DHT22;2619;47.868;11.892;2023-05-16T04:31:15;10.00;99.90
5200;DHT22;2619;47.868;11.892;2023-05-16T04:33:40;10.10;99.90
5200;DHT22;2619;47.868;11.892;2023-05-16T04:36:07;10.00;99.90
5200;DHT22;2619;47.868;11.892;2023-05-16T04:38:32;10.00;99.90
5200;DHT22;2619;47.868;11.892;2023-05-16T04:40:58;10.00;99.90
5200;DHT22;2619;47.868;11.892;2023-05-16T04:43:24;10.10;99.90
5200;DHT22;2619;47.868;11.892;2023-05-16T04:45:50;10.10;99.90
5200;DHT22;2619;47.868;11.892;2023-05-16T04:48:18;10.10;99.90
5200;DHT22;2619;47.868;11.892;2023-05-16T04:50:43;10.10;99.90
5200;DHT22;2619;47.868;11.892;2023-05-16T04:53:10;10.10;99.90
5200;DHT22;2619;47.868;11.892;2023-05-16T04:55:36;10.10;99.90
5200;DHT22;2619;47.868;11.892;2023-05-16T04:58:01;10.10;99.90
5200;DHT22;2619;47.868;11.892;2023-05-16T05:00:27;10.10;99.90
5200;DHT22;2619;47.868;11.892;2023-05-16T05:02:53;10.10;99.90
5200;DHT22;2619;47.868;11.892;2023-05-16T05:05:18;10.20;99.90
5200;DHT22;2619;47.868;11.892;2023-05-16T05:07:44;10.20;99.90
5200;DHT22;2619;47.868;11.892;2023-05-16T05:10:10;10.30;99.90
5200;DHT22;2619;47.868;11.892;2023-05-16T05:12:36;10.30;99.90
5200;DHT22;2619;47.868;11.892;2023-05-16T05:15:03;10.20;99.90
5200;DHT22;2619;47.868;11.892;2023-05-16T05:17:28;10.20;99.90
5200;DHT22;2619;47.868;11.892;2023-05-16T05:19:54;10.20;99.90
5200;DHT22;2619;47.868;11.892;2023-05-16T05:22:20;10.40;99.90
5200;DHT22;2619;47.868;11.892;2023-05-16T05:24:45;10.40;99.90
5200;DHT22;2619;47.868;11.892;2023-05-16T05:27:11;10.40;99.90
5200;DHT22;2619;47.868;11.892;2023-05-16T05:29:36;10.40;99.90
5200;DHT22;2619;47.868;11.892;2023-05-16T05:32:02;10.50;99.90
5200;DHT22;2619;47.868;11.892;2023-05-16T05:34:28;10.60;99.90
5200;DHT22;2619;47.868;11.892;2023-05-16T05:36:53;10.60;99.90
5200;DHT22;2619;47.868;11.892;2023-05-16T05:39:19;10.70;99.90
5200;DHT22;2619;47.868;11.892;2023-05-16T05:41:44;10.80;99.90
5200;DHT22;2619;47.868;11.892;2023-05-16T05:44:10;10.90;99.90
5200;DHT22;2619;47.868;11.892;2023-05-16T05:46:36;11.00;99.90
5200;DHT22;2619;47.868;11.892;2023-05-16T05:49:02;11.10;99.90
5200;DHT22;2619;47.868;11.892;2023-05-16T05:51:27;11.20;99.90
5200;DHT22;2619;47.868;11.892;2023-05-16T05:53:53;11.40;99.90
5200;DHT22;2619;47.868;11.892;2023-05-16T05:56:19;11.60;99.90
5200;DHT22;2619;47.868;11.892;2023-05-16T05:58:45;11.70;99.90
5200;DHT22;2619;47.868;11.892;2023-05-16T06:01:11;12.00;99.90
5200;DHT22;2619;47.868;11.892;2023-05-16T06:03:37;12.10;99.90
5200;DHT22;2619;47.868;11.892;2023-05-16T06:06:03;12.20;99.90
5200;DHT22;2619;47.868;11.892;2023-05-16T06:08:29;12.40;99.90
5200;DHT22;2619;47.868;11.892;2023-05-16T06:10:54;12.40;99.90
5200;DHT22;2619;47.868;11.892;2023-05-16T06:13:20;12.40;99.90
5200;DHT22;2619;47.868;11.892;2023-05-16T06:15:52;12.60;99.90
5200;DHT22;2619;47.868;11.892;2023-05-16T06:18:19;12.70;99.90
5200;DHT22;2619;47.868;11.892;2023-05-16T06:20:45;12.80;99.90
5200;DHT22;2619;47.868;11.892;2023-05-16T06:23:10;12.90;99.90
5200;DHT22;2619;47.868;11.892;2023-05-16T06:25:36;13.00;99.90
5200;DHT22;2619;47.868;11.892;2023-05-16T06:28:01;13.00;99.90
5200;DHT22;2619;47.868;11.892;2023-05-16T06:30:27;13.10;99.90
5200;DHT22;2619;47.868;11.892;2023-05-16T06:32:53;13.00;99.90
5200;DHT22;2619;47.868;11.892;2023-05-16T06:35:18;12.90;99.90
5200;DHT22;2619;47.868;11.892;2023-05-16T06:37:44;12.80;99.90
5200;DHT22;2619;47.868;11.892;2023-05-16T06:40:10;12.80;99.90
5200;DHT22;2619;47.868;11.892;2023-05-16T06:42:36;12.70;99.90
5200;DHT22;2619;47.868;11.892;2023-05-16T06:45:01;12.80;99.90
5200;DHT22;2619;47.868;11.892;2023-05-16T06:47:27;12.90;99.90
5200;DHT22;2619;47.868;11.892;2023-05-16T06:49:53;13.10;99.90
5200;DHT22;2619;47.868;11.892;2023-05-16T06:52:18;13.30;99.90
5200;DHT22;2619;47.868;11.892;2023-05-16T06:54:44;13.50;99.90
5200;DHT22;2619;47.868;11.892;2023-05-16T06:57:09;13.80;99.90
5200;DHT22;2619;47.868;11.892;2023-05-16T06:59:35;14.00;99.90
5200;DHT22;2619;47.868;11.892;2023-05-16T07:02:01;14.00;99.90
5200;DHT22;2619;47.868;11.892;2023-05-16T07:04:26;13.70;99.90
5200;DHT22;2619;47.868;11.892;2023-05-16T07:06:52;13.50;99.90
5200;DHT22;2619;47.868;11.892;2023-05-16T07:09:19;13.50;99.90
5200;DHT22;2619;47.868;11.892;2023-05-16T07:11:45;13.50;99.90
5200;DHT22;2619;47.868;11.892;2023-05-16T07:14:10;13.40;99.90
5200;DHT22;2619;47.868;11.892;2023-05-16T07:16:36;13.60;99.90
5200;DHT22;2619;47.868;11.892;2023-05-16T07:19:02;13.60;99.90
5200;DHT22;2619;47.868;11.892;2023-05-16T07:21:27;13.70;99.90
5200;DHT22;2619;47.868;11.892;2023-05-16T07:23:53;13.90;99.90
5200;DHT22;2619;47.868;11.892;2023-05-16T07:26:19;14.20;99.90
5200;DHT22;2619;47.868;11.892;2023-05-16T07:28:48;14.10;99.90
5200;DHT22;2619;47.868;11.892;2023-05-16T07:31:14;14.00;99.90
5200;DHT22;2619;47.868;11.892;2023-05-16T07:33:40;14.00;99.90
5200;DHT22;2619;47.868;11.892;2023-05-16T07:36:06;13.80;99.90
5200;DHT22;2619;47.868;11.892;2023-05-16T07:38:32;13.70;99.90
5200;DHT22;2619;47.868;11.892;2023-05-16T07:40:58;13.60;99.90
5200;DHT22;2619;47.868;11.892;2023-05-16T07:43:23;13.40;99.90
5200;DHT22;2619;47.868;11.892;2023-05-16T07:45:49;13.50;99.90
5200;DHT22;2619;47.868;11.892;2023-05-16T07:48:15;13.60;99.90
5200;DHT22;2619;47.868;11.892;2023-05-16T07:50:42;13.70;99.90
5200;DHT22;2619;47.868;11.892;2023-05-16T07:53:08;13.70;99.90
5200;DHT22;2619;47.868;11.892;2023-05-16T07:55:34;13.80;99.90
5200;DHT22;2619;47.868;11.892;2023-05-16T07:57:59;13.90;99.90
5200;DHT22;2619;47.868;11.892;2023-05-16T08:00:25;14.10;99.90
5200;DHT22;2619;47.868;11.892;2023-05-16T08:02:51;14.30;99.90
5200;DHT22;2619;47.868;11.892;2023-05-16T08:05:16;14.50;99.90
5200;DHT22;2619;47.868;11.892;2023-05-16T08:07:42;14.70;99.90
5200;DHT22;2619;47.868;11.892;2023-05-16T08:10:08;15.20;99.90
5200;DHT22;2619;47.868;11.892;2023-05-16T08:12:33;15.40;99.90
5200;DHT22;2619;47.868;11.892;2023-05-16T08:14:59;15.40;99.90
5200;DHT22;2619;47.868;11.892;2023-05-16T08:17:25;15.40;99.90
5200;DHT22;2619;47.868;11.892;2023-05-16T08:19:50;15.50;99.90
5200;DHT22;2619;47.868;11.892;2023-05-16T08:22:16;15.20;99.90
5200;DHT22;2619;47.868;11.892;2023-05-16T08:24:41;15.00;99.90
5200;DHT22;2619;47.868;11.892;2023-05-16T08:27:07;15.00;99.90
5200;DHT22;2619;47.868;11.892;2023-05-16T08:29:33;15.10;99.90
5200;DHT22;2619;47.868;11.892;2023-05-16T08:31:58;14.90;99.90
5200;DHT22;2619;47.868;11.892;2023-05-16T08:34:24;14.80;99.90
5200;DHT22;2619;47.868;11.892;2023-05-16T08:36:50;14.80;99.90
5200;DHT22;2619;47.868;11.892;2023-05-16T08:39:15;15.00;99.90
5200;DHT22;2619;47.868;11.892;2023-05-16T08:41:41;15.10;99.90
5200;DHT22;2619;47.868;11.892;2023-05-16T08:44:07;15.10;99.90
5200;DHT22;2619;47.868;11.892;2023-05-16T08:46:33;15.20;99.90
5200;DHT22;2619;47.868;11.892;2023-05-16T08:49:00;15.40;99.90
5200;DHT22;2619;47.868;11.892;2023-05-16T08:51:32;15.60;99.90
5200;DHT22;2619;47.868;11.892;2023-05-16T08:54:06;15.60;99.90
5200;DHT22;2619;47.868;11.892;2023-05-16T08:56:36;15.50;99.90
5200;DHT22;2619;47.868;11.892;2023-05-16T08:59:03;15.50;99.90
5200;DHT22;2619;47.868;11.892;2023-05-16T09:01:30;15.50;99.90
5200;DHT22;2619;47.868;11.892;2023-05-16T09:03:57;15.50;99.90
5200;DHT22;2619;47.868;11.892;2023-05-16T09:06:23;15.70;99.90
5200;DHT22;2619;47.868;11.892;2023-05-16T09:08:49;16.00;99.90
5200;DHT22;2619;47.868;11.892;2023-05-16T09:11:15;16.00;99.90
5200;DHT22;2619;47.868;11.892;2023-05-16T09:13:41;16.00;99.90
5200;DHT22;2619;47.868;11.892;2023-05-16T09:16:10;16.00;99.90
5200;DHT22;2619;47.868;11.892;2023-05-16T09:18:36;15.70;99.90
5200;DHT22;2619;47.868;11.892;2023-05-16T09:21:04;15.60;99.90
5200;DHT22;2619;47.868;11.892;2023-05-16T09:23:29;15.70;99.90
5200;DHT22;2619;47.868;11.892;2023-05-16T09:25:57;15.90;99.90
5200;DHT22;2619;47.868;11.892;2023-05-16T09:28:24;16.10;99.90
5200;DHT22;2619;47.868;11.892;2023-05-16T09:30:52;16.20;99.90
5200;DHT22;2619;47.868;11.892;2023-05-16T09:33:21;16.40;99.90
5200;DHT22;2619;47.868;11.892;2023-05-16T09:35:57;16.50;99.90
5200;DHT22;2619;47.868;11.892;2023-05-16T09:38:23;16.40;99.90
5200;DHT22;2619;47.868;11.892;2023-05-16T09:40:50;16.10;99.90
5200;DHT22;2619;47.868;11.892;2023-05-16T09:43:16;15.80;99.90
5200;DHT22;2619;47.868;11.892;2023-05-16T09:45:46;15.80;99.90
5200;DHT22;2619;47.868;11.892;2023-05-16T09:48:13;15.70;99.90
5200;DHT22;2619;47.868;11.892;2023-05-16T09:50:39;15.50;99.90
5200;DHT22;2619;47.868;11.892;2023-05-16T09:53:06;15.20;99.90
5200;DHT22;2619;47.868;11.892;2023-05-16T09:55:32;15.00;99.90
5200;DHT22;2619;47.868;11.892;2023-05-16T09:57:58;14.80;99.90
5200;DHT22;2619;47.868;11.892;2023-05-16T10:00:29;14.70;99.90
5200;DHT22;2619;47.868;11.892;2023-05-16T10:02:56;14.60;99.90
5200;DHT22;2619;47.868;11.892;2023-05-16T10:05:25;14.60;99.90
5200;DHT22;2619;47.868;11.892;2023-05-16T10:07:54;14.50;99.90
5200;DHT22;2619;47.868;11.892;2023-05-16T10:10:21;14.50;99.90
5200;DHT22;2619;47.868;11.892;2023-05-16T10:12:47;14.60;99.90
5200;DHT22;2619;47.868;11.892;2023-05-16T10:15:13;14.60;99.90
5200;DHT22;2619;47.868;11.892;2023-05-16T10:17:42;14.40;99.90
5200;DHT22;2619;47.868;11.892;2023-05-16T10:20:09;14.40;99.90
5200;DHT22;2619;47.868;11.892;2023-05-16T10:22:41;14.50;99.90
5200;DHT22;2619;47.868;11.892;2023-05-16T10:26:08;14.70;99.90
5200;DHT22;2619;47.868;11.892;2023-05-16T10:28:03;14.80;99.90
5200;DHT22;2619;47.868;11.892;2023-05-16T10:30:31;14.90;99.90
5200;DHT22;2619;47.868;11.892;2023-05-16T10:32:58;14.80;99.90
5200;DHT22;2619;47.868;11.892;2023-05-16T10:35:25;14.90;99.90
5200;DHT22;2619;47.868;11.892;2023-05-16T10:37:52;14.80;99.90
5200;DHT22;2619;47.868;11.892;2023-05-16T10:40:18;14.80;99.90
5200;DHT22;2619;47.868;11.892;2023-05-16T10:43:00;14.70;99.90
5200;DHT22;2619;47.868;11.892;2023-05-16T10:45:26;14.60;99.90
5200;DHT22;2619;47.868;11.892;2023-05-16T10:47:54;14.40;99.90
5200;DHT22;2619;47.868;11.892;2023-05-16T10:50:39;14.10;99.90
5200;DHT22;2619;47.868;11.892;2023-05-16T11:01:31;13.80;99.90
5200;DHT22;2619;47.868;11.892;2023-05-16T11:06:30;13.40;99.90
5200;DHT22;2619;47.868;11.892;2023-05-16T11:17:11;13.00;99.90
5200;DHT22;2619;47.868;11.892;2023-05-16T11:19:51;13.00;99.90
5200;DHT22;2619;47.868;11.892;2023-05-16T11:25:03;12.90;99.90
5200;DHT22;2619;47.868;11.892;2023-05-16T11:32:25;12.90;99.90
5200;DHT22;2619;47.868;11.892;2023-05-16T11:34:51;12.70;99.90
5200;DHT22;2619;47.868;11.892;2023-05-16T11:37:18;12.60;99.90
5200;DHT22;2619;47.868;11.892;2023-05-16T11:39:45;12.50;99.90
5200;DHT22;2619;47.868;11.892;2023-05-16T11:42:11;12.40;99.90
5200;DHT22;2619;47.868;11.892;2023-05-16T11:44:38;12.30;99.90
5200;DHT22;2619;47.868;11.892;2023-05-16T11:47:05;12.10;99.90
5200;DHT22;2619;47.868;11.892;2023-05-16T11:49:30;12.00;99.90
5200;DHT22;2619;47.868;11.892;2023-05-16T11:51:56;12.10;99.90
5200;DHT22;2619;47.868;11.892;2023-05-16T11:54:22;12.00;99.90
5200;DHT22;2619;47.868;11.892;2023-05-16T11:56:51;11.90;99.90
5200;DHT22;2619;47.868;11.892;2023-05-16T11:59:18;11.90;99.90
5200;DHT22;2619;47.868;11.892;2023-05-16T12:01:43;12.00;99.90
5200;DHT22;2619;47.868;11.892;2023-05-16T12:04:10;11.90;99.90
5200;DHT22;2619;47.868;11.892;2023-05-16T12:06:37;11.90;99.90
5200;DHT22;2619;47.868;11.892;2023-05-16T12:09:11;11.90;99.90
5200;DHT22;2619;47.868;11.892;2023-05-16T12:11:38;12.00;99.90
5200;DHT22;2619;47.868;11.892;2023-05-16T12:14:06;12.10;99.90
5200;DHT22;2619;47.868;11.892;2023-05-16T12:16:32;12.30;99.90
5200;DHT22;2619;47.868;11.892;2023-05-16T12:18:59;12.60;99.90
5200;DHT22;2619;47.868;11.892;2023-05-16T12:21:26;12.80;99.90
5200;DHT22;2619;47.868;11.892;2023-05-16T12:23:55;12.80;99.90
5200;DHT22;2619;47.868;11.892;2023-05-16T12:26:29;12.70;99.90
5200;DHT22;2619;47.868;11.892;2023-05-16T12:28:59;12.50;99.90
5200;DHT22;2619;47.868;11.892;2023-05-16T12:31:28;12.40;99.90
5200;DHT22;2619;47.868;11.892;2023-05-16T12:33:55;12.40;99.90
5200;DHT22;2619;47.868;11.892;2023-05-16T12:36:21;12.40;99.90
5200;DHT22;2619;47.868;11.892;2023-05-16T12:38:47;12.60;99.90
5200;DHT22;2619;47.868;11.892;2023-05-16T12:41:20;12.70;99.90
5200;DHT22;2619;47.868;11.892;2023-05-16T12:43:46;12.80;99.90
5200;DHT22;2619;47.868;11.892;2023-05-16T12:46:12;12.80;99.90
5200;DHT22;2619;47.868;11.892;2023-05-16T12:48:38;12.80;99.90
5200;DHT22;2619;47.868;11.892;2023-05-16T12:51:16;12.80;99.90
5200;DHT22;2619;47.868;11.892;2023-05-16T12:53:47;12.80;99.90
5200;DHT22;2619;47.868;11.892;2023-05-16T12:56:14;12.90;99.90
5200;DHT22;2619;47.868;11.892;2023-05-16T12:58:40;12.90;99.90
5200;DHT22;2619;47.868;11.892;2023-05-16T13:01:07;13.20;99.90
5200;DHT22;2619;47.868;11.892;2023-05-16T13:03:33;13.40;99.90
5200;DHT22;2619;47.868;11.892;2023-05-16T13:05:59;13.50;99.90
5200;DHT22;2619;47.868;11.892;2023-05-16T13:08:26;13.60;99.90
5200;DHT22;2619;47.868;11.892;2023-05-16T13:10:52;13.80;99.90
5200;DHT22;2619;47.868;11.892;2023-05-16T13:13:17;13.70;99.90
5200;DHT22;2619;47.868;11.892;2023-05-16T13:15:46;13.80;99.90
5200;DHT22;2619;47.868;11.892;2023-05-16T13:18:12;13.90;99.90
5200;DHT22;2619;47.868;11.892;2023-05-16T13:20:38;13.90;99.90
5200;DHT22;2619;47.868;11.892;2023-05-16T13:23:04;13.80;99.90
5200;DHT22;2619;47.868;11.892;2023-05-16T13:25:30;13.80;99.90
5200;DHT22;2619;47.868;11.892;2023-05-16T13:27:56;13.70;99.90
5200;DHT22;2619;47.868;11.892;2023-05-16T13:30:22;13.60;99.90
5200;DHT22;2619;47.868;11.892;2023-05-16T13:32:48;13.50;99.90
5200;DHT22;2619;47.868;11.892;2023-05-16T13:35:14;13.20;99.90
5200;DHT22;2619;47.868;11.892;2023-05-16T13:37:40;12.90;99.90
5200;DHT22;2619;47.868;11.892;2023-05-16T13:40:06;13.00;99.90
5200;DHT22;2619;47.868;11.892;2023-05-16T13:42:35;13.20;99.90
5200;DHT22;2619;47.868;11.892;2023-05-16T13:45:02;13.50;99.90
5200;DHT22;2619;47.868;11.892;2023-05-16T13:47:27;13.50;99.90
5200;DHT22;2619;47.868;11.892;2023-05-16T13:49:53;13.70;99.90
5200;DHT22;2619;47.868;11.892;2023-05-16T13:52:18;14.00;99.90
5200;DHT22;2619;47.868;11.892;2023-05-16T13:54:44;14.10;99.90
5200;DHT22;2619;47.868;11.892;2023-05-16T13:57:10;14.20;99.90
5200;DHT22;2619;47.868;11.892;2023-05-16T13:59:35;14.30;99.90
5200;DHT22;2619;47.868;11.892;2023-05-16T14:02:01;14.30;99.90
5200;DHT22;2619;47.868;11.892;2023-05-16T14:04:27;14.40;99.90
5200;DHT22;2619;47.868;11.892;2023-05-16T14:06:52;14.60;99.90
5200;DHT22;2619;47.868;11.892;2023-05-16T14:09:19;14.80;99.90
5200;DHT22;2619;47.868;11.892;2023-05-16T14:11:45;15.00;99.90
5200;DHT22;2619;47.868;11.892;2023-05-16T14:14:10;15.10;99.90
5200;DHT22;2619;47.868;11.892;2023-05-16T14:16:36;15.30;99.90
5200;DHT22;2619;47.868;11.892;2023-05-16T14:19:01;15.40;99.90
5200;DHT22;2619;47.868;11.892;2023-05-16T14:21:27;15.60;99.90
5200;DHT22;2619;47.868;11.892;2023-05-16T14:23:52;15.50;99.90
5200;DHT22;2619;47.868;11.892;2023-05-16T14:26:18;15.40;99.90
5200;DHT22;2619;47.868;11.892;2023-05-16T14:28:49;15.30;99.90
5200;DHT22;2619;47.868;11.892;2023-05-16T14:31:15;15.20;99.90
5200;DHT22;2619;47.868;11.892;2023-05-16T14:33:41;15.20;99.90
5200;DHT22;2619;47.868;11.892;2023-05-16T14:36:08;15.10;99.90
5200;DHT22;2619;47.868;11.892;2023-05-16T14:38:34;15.00;99.90
5200;DHT22;2619;47.868;11.892;2023-05-16T14:40:59;14.70;99.90
5200;DHT22;2619;47.868;11.892;2023-05-16T14:43:25;14.50;99.90
5200;DHT22;2619;47.868;11.892;2023-05-16T14:45:51;14.30;99.90
5200;DHT22;2619;47.868;11.892;2023-05-16T14:48:16;14.30;99.90
5200;DHT22;2619;47.868;11.892;2023-05-16T14:50:42;14.10;99.90
5200;DHT22;2619;47.868;11.892;2023-05-16T14:53:08;13.90;99.90
5200;DHT22;2619;47.868;11.892;2023-05-16T14:55:33;13.80;99.90
5200;DHT22;2619;47.868;11.892;2023-05-16T14:57:59;13.70;99.90
5200;DHT22;2619;47.868;11.892;2023-05-16T15:00:25;13.60;99.90
5200;DHT22;2619;47.868;11.892;2023-05-16T15:02:51;13.40;99.90
5200;DHT22;2619;47.868;11.892;2023-05-16T15:05:17;12.70;99.90
5200;DHT22;2619;47.868;11.892;2023-05-16T15:07:43;12.20;99.90
5200;DHT22;2619;47.868;11.892;2023-05-16T15:10:09;11.70;99.90
5200;DHT22;2619;47.868;11.892;2023-05-16T15:12:35;11.30;99.90
5200;DHT22;2619;47.868;11.892;2023-05-16T15:15:01;11.10;99.90
5200;DHT22;2619;47.868;11.892;2023-05-16T15:17:26;11.00;99.90
5200;DHT22;2619;47.868;11.892;2023-05-16T15:19:52;10.90;99.90
5200;DHT22;2619;47.868;11.892;2023-05-16T15:22:19;10.90;99.90
5200;DHT22;2619;47.868;11.892;2023-05-16T15:24:44;10.80;99.90
5200;DHT22;2619;47.868;11.892;2023-05-16T15:27:10;10.80;99.90
5200;DHT22;2619;47.868;11.892;2023-05-16T15:29:36;10.60;99.90
5200;DHT22;2619;47.868;11.892;2023-05-16T15:32:05;10.50;99.90
5200;DHT22;2619;47.868;11.892;2023-05-16T15:34:31;10.40;99.90
5200;DHT22;2619;47.868;11.892;2023-05-16T15:36:57;10.40;99.90
5200;DHT22;2619;47.868;11.892;2023-05-16T15:39:23;10.30;99.90
5200;DHT22;2619;47.868;11.892;2023-05-16T15:41:50;10.30;99.90
5200;DHT22;2619;47.868;11.892;2023-05-16T15:44:16;10.20;99.90
5200;DHT22;2619;47.868;11.892;2023-05-16T15:46:42;10.20;99.90
5200;DHT22;2619;47.868;11.892;2023-05-16T15:49:07;10.10;99.90
5200;DHT22;2619;47.868;11.892;2023-05-16T15:51:33;10.00;99.90
5200;DHT22;2619;47.868;11.892;2023-05-16T15:54:00;10.00;99.90
5200;DHT22;2619;47.868;11.892;2023-05-16T15:56:26;10.00;99.90
5200;DHT22;2619;47.868;11.892;2023-05-16T15:58:54;10.10;99.90
5200;DHT22;2619;47.868;11.892;2023-05-16T16:01:19;10.10;99.90
5200;DHT22;2619;47.868;11.892;2023-05-16T16:03:45;10.20;99.90
5200;DHT22;2619;47.868;11.892;2023-05-16T16:06:11;10.30;99.90
5200;DHT22;2619;47.868;11.892;2023-05-16T16:08:36;10.30;99.90
5200;DHT22;2619;47.868;11.892;2023-05-16T16:11:02;10.40;99.90
5200;DHT22;2619;47.868;11.892;2023-05-16T16:13:29;10.30;99.90
5200;DHT22;2619;47.868;11.892;2023-05-16T16:15:55;10.30;99.90
5200;DHT22;2619;47.868;11.892;2023-05-16T16:18:21;10.30;99.90